sensor_id;sensor_type;location;lat;lon;timestamp;P1;durP1;ratioP1;P2;durP2;ratioP2
56363;SDS011;42261;52.094;4.326;2023-04-09T00:02:19;20.75;;;11.57;;
56363;SDS011;42261;52.094;4.326;2023-04-09T00:05:03;24.60;;;12.77;;
56363;SDS011;42261;52.094;4.326;2023-04-09T00:07:48;24.25;;;12.82;;
56363;SDS011;42261;52.094;4.326;2023-04-09T00:10:32;20.00;;;12.52;;
56363;SDS011;42261;52.094;4.326;2023-04-09T00:13:16;19.50;;;11.82;;
56363;SDS011;42261;52.094;4.326;2023-04-09T00:16:01;22.17;;;12.52;;
56363;SDS011;42261;52.094;4.326;2023-04-09T00:18:46;23.00;;;13.02;;
56363;SDS011;42261;52.094;4.326;2023-04-09T00:21:30;25.10;;;12.90;;
56363;SDS011;42261;52.094;4.326;2023-04-09T00:24:15;22.40;;;12.88;;
56363;SDS011;42261;52.094;4.326;2023-04-09T00:26:59;23.08;;;13.65;;
56363;SDS011;42261;52.094;4.326;2023-04-09T00:29:44;22.77;;;12.23;;
56363;SDS011;42261;52.094;4.326;2023-04-09T00:32:28;24.42;;;13.10;;
56363;SDS011;42261;52.094;4.326;2023-04-09T00:35:12;22.52;;;13.02;;
56363;SDS011;42261;52.094;4.326;2023-04-09T00:37:56;20.67;;;12.35;;
56363;SDS011;42261;52.094;4.326;2023-04-09T00:40:40;25.48;;;13.82;;
56363;SDS011;42261;52.094;4.326;2023-04-09T00:43:25;25.33;;;14.18;;
56363;SDS011;42261;52.094;4.326;2023-04-09T00:46:09;22.63;;;12.90;;
56363;SDS011;42261;52.094;4.326;2023-04-09T00:48:54;23.63;;;14.05;;
56363;SDS011;42261;52.094;4.326;2023-04-09T00:51:38;23.80;;;12.15;;
56363;SDS011;42261;52.094;4.326;2023-04-09T00:54:23;21.88;;;12.63;;
56363;SDS011;42261;52.094;4.326;2023-04-09T00:57:07;23.40;;;12.57;;
56363;SDS011;42261;52.094;4.326;2023-04-09T00:59:51;25.40;;;13.80;;
56363;SDS011;42261;52.094;4.326;2023-04-09T01:02:35;22.38;;;12.90;;
56363;SDS011;42261;52.094;4.326;2023-04-09T01:05:20;25.08;;;13.63;;
56363;SDS011;42261;52.094;4.326;2023-04-09T01:10:54;23.98;;;13.93;;
56363;SDS011;42261;52.094;4.326;2023-04-09T01:16:30;24.92;;;14.20;;
56363;SDS011;42261;52.094;4.326;2023-04-09T01:22:23;25.35;;;13.73;;
56363;SDS011;42261;52.094;4.326;2023-04-09T01:25:59;27.52;;;13.52;;
56363;SDS011;42261;52.094;4.326;2023-04-09T01:28:36;22.75;;;13.20;;
56363;SDS011;42261;52.094;4.326;2023-04-09T01:31:25;27.20;;;13.50;;
56363;SDS011;42261;52.094;4.326;2023-04-09T01:34:09;24.45;;;14.10;;
56363;SDS011;42261;52.094;4.326;2023-04-09T01:36:54;25.35;;;14.00;;
56363;SDS011;42261;52.094;4.326;2023-04-09T01:39:39;25.27;;;13.95;;
56363;SDS011;42261;52.094;4.326;2023-04-09T01:42:24;24.52;;;13.30;;
56363;SDS011;42261;52.094;4.326;2023-04-09T01:45:09;26.83;;;13.20;;
56363;SDS011;42261;52.094;4.326;2023-04-09T01:47:53;24.85;;;12.88;;
56363;SDS011;42261;52.094;4.326;2023-04-09T01:50:39;27.20;;;15.88;;
56363;SDS011;42261;52.094;4.326;2023-04-09T01:53:23;23.02;;;12.38;;
56363;SDS011;42261;52.094;4.326;2023-04-09T01:56:11;35.00;;;15.15;;
56363;SDS011;42261;52.094;4.326;2023-04-09T01:58:55;22.35;;;14.48;;
56363;SDS011;42261;52.094;4.326;2023-04-09T02:01:59;24.83;;;12.60;;
56363;SDS011;42261;52.094;4.326;2023-04-09T02:04:45;22.98;;;13.63;;
56363;SDS011;42261;52.094;4.326;2023-04-09T02:07:37;28.35;;;13.98;;
56363;SDS011;42261;52.094;4.326;2023-04-09T02:10:25;26.42;;;13.63;;
56363;SDS011;42261;52.094;4.326;2023-04-09T02:13:10;25.23;;;14.63;;
56363;SDS011;42261;52.094;4.326;2023-04-09T02:15:58;27.52;;;15.00;;
56363;SDS011;42261;52.094;4.326;2023-04-09T02:18:42;22.45;;;13.55;;
56363;SDS011;42261;52.094;4.326;2023-04-09T02:21:27;22.48;;;13.32;;
56363;SDS011;42261;52.094;4.326;2023-04-09T02:24:11;25.80;;;13.32;;
56363;SDS011;42261;52.094;4.326;2023-04-09T02:26:55;25.67;;;13.95;;
56363;SDS011;42261;52.094;4.326;2023-04-09T02:29:40;24.90;;;13.48;;
56363;SDS011;42261;52.094;4.326;2023-04-09T02:32:24;29.52;;;15.30;;
56363;SDS011;42261;52.094;4.326;2023-04-09T02:35:09;29.10;;;15.52;;
56363;SDS011;42261;52.094;4.326;2023-04-09T02:37:53;26.05;;;15.00;;
56363;SDS011;42261;52.094;4.326;2023-04-09T02:40:37;27.10;;;14.45;;
56363;SDS011;42261;52.094;4.326;2023-04-09T02:43:20;27.67;;;14.27;;
56363;SDS011;42261;52.094;4.326;2023-04-09T02:46:05;25.05;;;14.35;;
56363;SDS011;42261;52.094;4.326;2023-04-09T02:48:49;27.45;;;14.98;;
56363;SDS011;42261;52.094;4.326;2023-04-09T02:51:34;27.48;;;13.75;;
56363;SDS011;42261;52.094;4.326;2023-04-09T02:54:18;24.23;;;13.65;;
56363;SDS011;42261;52.094;4.326;2023-04-09T02:57:02;25.55;;;13.45;;
56363;SDS011;42261;52.094;4.326;2023-04-09T02:59:46;26.65;;;14.50;;
56363;SDS011;42261;52.094;4.326;2023-04-09T03:02:30;24.48;;;14.45;;
56363;SDS011;42261;52.094;4.326;2023-04-09T03:05:14;23.30;;;15.15;;
56363;SDS011;42261;52.094;4.326;2023-04-09T03:07:58;26.38;;;14.45;;
56363;SDS011;42261;52.094;4.326;2023-04-09T03:10:42;27.52;;;14.55;;
56363;SDS011;42261;52.094;4.326;2023-04-09T03:13:27;28.35;;;15.38;;
56363;SDS011;42261;52.094;4.326;2023-04-09T03:16:11;28.45;;;13.95;;
56363;SDS011;42261;52.094;4.326;2023-04-09T03:18:55;24.80;;;14.10;;
56363;SDS011;42261;52.094;4.326;2023-04-09T03:21:39;25.77;;;14.77;;
56363;SDS011;42261;52.094;4.326;2023-04-09T03:24:24;27.45;;;14.43;;
56363;SDS011;42261;52.094;4.326;2023-04-09T03:27:09;26.67;;;14.82;;
56363;SDS011;42261;52.094;4.326;2023-04-09T03:29:57;26.95;;;14.10;;
56363;SDS011;42261;52.094;4.326;2023-04-09T03:32:42;25.75;;;14.05;;
56363;SDS011;42261;52.094;4.326;2023-04-09T03:35:26;25.15;;;12.98;;
56363;SDS011;42261;52.094;4.326;2023-04-09T03:38:10;23.23;;;13.43;;
56363;SDS011;42261;52.094;4.326;2023-04-09T03:40:54;29.55;;;14.55;;
56363;SDS011;42261;52.094;4.326;2023-04-09T03:43:38;24.55;;;14.30;;
56363;SDS011;42261;52.094;4.326;2023-04-09T03:46:24;23.77;;;13.45;;
56363;SDS011;42261;52.094;4.326;2023-04-09T03:49:09;25.08;;;14.15;;
56363;SDS011;42261;52.094;4.326;2023-04-09T03:51:52;24.25;;;13.32;;
56363;SDS011;42261;52.094;4.326;2023-04-09T03:54:36;25.23;;;14.25;;
56363;SDS011;42261;52.094;4.326;2023-04-09T03:57:20;26.52;;;13.77;;
56363;SDS011;42261;52.094;4.326;2023-04-09T04:00:06;24.92;;;13.88;;
56363;SDS011;42261;52.094;4.326;2023-04-09T04:02:50;25.08;;;14.63;;
56363;SDS011;42261;52.094;4.326;2023-04-09T04:05:34;26.05;;;14.20;;
56363;SDS011;42261;52.094;4.326;2023-04-09T04:08:20;22.27;;;13.13;;
56363;SDS011;42261;52.094;4.326;2023-04-09T04:11:04;25.85;;;13.20;;
56363;SDS011;42261;52.094;4.326;2023-04-09T04:13:48;26.48;;;14.82;;
56363;SDS011;42261;52.094;4.326;2023-04-09T04:16:32;24.55;;;14.18;;
56363;SDS011;42261;52.094;4.326;2023-04-09T04:19:16;26.33;;;13.40;;
56363;SDS011;42261;52.094;4.326;2023-04-09T04:22:00;28.95;;;14.82;;
56363;SDS011;42261;52.094;4.326;2023-04-09T04:24:45;24.90;;;13.30;;
56363;SDS011;42261;52.094;4.326;2023-04-09T04:27:29;23.77;;;13.38;;
56363;SDS011;42261;52.094;4.326;2023-04-09T04:30:13;22.58;;;13.27;;
56363;SDS011;42261;52.094;4.326;2023-04-09T04:32:57;23.80;;;13.70;;
56363;SDS011;42261;52.094;4.326;2023-04-09T04:35:41;26.80;;;14.50;;
56363;SDS011;42261;52.094;4.326;2023-04-09T04:38:25;25.05;;;13.25;;
56363;SDS011;42261;52.094;4.326;2023-04-09T04:41:10;24.88;;;13.57;;
56363;SDS011;42261;52.094;4.326;2023-04-09T04:43:54;27.52;;;14.82;;
56363;SDS011;42261;52.094;4.326;2023-04-09T04:46:38;28.42;;;15.65;;
56363;SDS011;42261;52.094;4.326;2023-04-09T04:49:22;24.40;;;14.25;;
56363;SDS011;42261;52.094;4.326;2023-04-09T04:52:06;25.25;;;14.65;;
56363;SDS011;42261;52.094;4.326;2023-04-09T04:54:51;30.00;;;16.75;;
56363;SDS011;42261;52.094;4.326;2023-04-09T04:57:35;26.42;;;14.07;;
56363;SDS011;42261;52.094;4.326;2023-04-09T05:00:19;27.52;;;15.30;;
56363;SDS011;42261;52.094;4.326;2023-04-09T05:03:03;24.23;;;14.18;;
56363;SDS011;42261;52.094;4.326;2023-04-09T05:05:47;27.85;;;15.18;;
56363;SDS011;42261;52.094;4.326;2023-04-09T05:08:31;25.58;;;14.68;;
56363;SDS011;42261;52.094;4.326;2023-04-09T05:11:15;25.63;;;14.43;;
56363;SDS011;42261;52.094;4.326;2023-04-09T05:13:59;26.73;;;13.95;;
56363;SDS011;42261;52.094;4.326;2023-04-09T05:16:44;26.05;;;14.32;;
56363;SDS011;42261;52.094;4.326;2023-04-09T05:19:28;30.15;;;16.10;;
56363;SDS011;42261;52.094;4.326;2023-04-09T05:22:12;26.80;;;15.13;;
56363;SDS011;42261;52.094;4.326;2023-04-09T05:24:56;26.60;;;15.05;;
56363;SDS011;42261;52.094;4.326;2023-04-09T05:27:40;27.50;;;15.15;;
56363;SDS011;42261;52.094;4.326;2023-04-09T05:30:24;28.63;;;15.93;;
56363;SDS011;42261;52.094;4.326;2023-04-09T05:33:08;26.42;;;13.38;;
56363;SDS011;42261;52.094;4.326;2023-04-09T05:35:52;26.55;;;14.63;;
56363;SDS011;42261;52.094;4.326;2023-04-09T05:38:36;27.30;;;15.80;;
56363;SDS011;42261;52.094;4.326;2023-04-09T05:41:20;29.15;;;14.98;;
56363;SDS011;42261;52.094;4.326;2023-04-09T05:44:06;27.83;;;13.60;;
56363;SDS011;42261;52.094;4.326;2023-04-09T05:46:50;31.08;;;15.80;;
56363;SDS011;42261;52.094;4.326;2023-04-09T05:49:35;26.00;;;15.27;;
56363;SDS011;42261;52.094;4.326;2023-04-09T05:52:19;29.88;;;14.52;;
56363;SDS011;42261;52.094;4.326;2023-04-09T05:55:04;29.75;;;16.25;;
56363;SDS011;42261;52.094;4.326;2023-04-09T05:57:51;26.88;;;15.68;;
56363;SDS011;42261;52.094;4.326;2023-04-09T06:00:35;26.33;;;15.70;;
56363;SDS011;42261;52.094;4.326;2023-04-09T06:03:19;27.02;;;14.15;;
56363;SDS011;42261;52.094;4.326;2023-04-09T06:06:03;28.13;;;15.55;;
56363;SDS011;42261;52.094;4.326;2023-04-09T06:08:46;30.75;;;16.02;;
56363;SDS011;42261;52.094;4.326;2023-04-09T06:11:31;27.85;;;14.45;;
56363;SDS011;42261;52.094;4.326;2023-04-09T06:14:15;32.15;;;15.73;;
56363;SDS011;42261;52.094;4.326;2023-04-09T06:17:01;26.13;;;15.20;;
56363;SDS011;42261;52.094;4.326;2023-04-09T06:19:45;27.52;;;15.02;;
56363;SDS011;42261;52.094;4.326;2023-04-09T06:22:29;29.23;;;14.25;;
56363;SDS011;42261;52.094;4.326;2023-04-09T06:25:13;31.55;;;16.23;;
56363;SDS011;42261;52.094;4.326;2023-04-09T06:27:57;23.20;;;13.73;;
56363;SDS011;42261;52.094;4.326;2023-04-09T06:30:41;27.58;;;13.80;;
56363;SDS011;42261;52.094;4.326;2023-04-09T06:33:25;27.85;;;14.63;;
56363;SDS011;42261;52.094;4.326;2023-04-09T06:36:09;25.52;;;14.73;;
56363;SDS011;42261;52.094;4.326;2023-04-09T06:38:53;26.58;;;14.38;;
56363;SDS011;42261;52.094;4.326;2023-04-09T06:41:38;26.00;;;13.77;;
56363;SDS011;42261;52.094;4.326;2023-04-09T06:44:22;26.30;;;15.27;;
56363;SDS011;42261;52.094;4.326;2023-04-09T06:47:07;25.40;;;13.68;;
56363;SDS011;42261;52.094;4.326;2023-04-09T06:49:52;28.10;;;14.77;;
56363;SDS011;42261;52.094;4.326;2023-04-09T06:52:36;25.83;;;14.65;;
56363;SDS011;42261;52.094;4.326;2023-04-09T06:55:20;25.10;;;13.93;;
56363;SDS011;42261;52.094;4.326;2023-04-09T06:58:04;22.67;;;13.75;;
56363;SDS011;42261;52.094;4.326;2023-04-09T07:00:48;22.10;;;12.77;;
56363;SDS011;42261;52.094;4.326;2023-04-09T07:03:34;26.30;;;14.57;;
56363;SDS011;42261;52.094;4.326;2023-04-09T07:06:18;24.65;;;13.82;;
56363;SDS011;42261;52.094;4.326;2023-04-09T07:09:01;24.77;;;13.85;;
56363;SDS011;42261;52.094;4.326;2023-04-09T07:11:46;27.85;;;13.80;;
56363;SDS011;42261;52.094;4.326;2023-04-09T07:14:30;27.52;;;14.63;;
56363;SDS011;42261;52.094;4.326;2023-04-09T07:17:15;26.65;;;13.85;;
56363;SDS011;42261;52.094;4.326;2023-04-09T07:19:58;27.23;;;14.05;;
56363;SDS011;42261;52.094;4.326;2023-04-09T07:22:43;30.45;;;15.15;;
56363;SDS011;42261;52.094;4.326;2023-04-09T07:25:27;25.10;;;15.20;;
56363;SDS011;42261;52.094;4.326;2023-04-09T07:28:11;29.55;;;14.30;;
56363;SDS011;42261;52.094;4.326;2023-04-09T07:30:55;26.67;;;14.35;;
56363;SDS011;42261;52.094;4.326;2023-04-09T07:33:39;27.17;;;13.63;;
56363;SDS011;42261;52.094;4.326;2023-04-09T07:36:23;26.52;;;14.90;;
56363;SDS011;42261;52.094;4.326;2023-04-09T07:39:07;26.33;;;14.75;;
56363;SDS011;42261;52.094;4.326;2023-04-09T07:41:51;26.10;;;14.27;;
56363;SDS011;42261;52.094;4.326;2023-04-09T07:44:36;27.80;;;14.55;;
56363;SDS011;42261;52.094;4.326;2023-04-09T07:47:20;27.13;;;14.38;;
56363;SDS011;42261;52.094;4.326;2023-04-09T07:50:05;26.40;;;12.95;;
56363;SDS011;42261;52.094;4.326;2023-04-09T07:52:49;28.25;;;14.35;;
56363;SDS011;42261;52.094;4.326;2023-04-09T07:55:34;30.30;;;14.85;;
56363;SDS011;42261;52.094;4.326;2023-04-09T07:58:18;28.77;;;14.32;;
56363;SDS011;42261;52.094;4.326;2023-04-09T08:01:02;28.80;;;14.13;;
56363;SDS011;42261;52.094;4.326;2023-04-09T08:03:47;32.90;;;15.65;;
56363;SDS011;42261;52.094;4.326;2023-04-09T08:06:31;27.60;;;14.63;;
56363;SDS011;42261;52.094;4.326;2023-04-09T08:09:16;27.70;;;14.15;;
56363;SDS011;42261;52.094;4.326;2023-04-09T08:12:00;30.02;;;15.30;;
56363;SDS011;42261;52.094;4.326;2023-04-09T08:14:44;28.90;;;14.13;;
56363;SDS011;42261;52.094;4.326;2023-04-09T08:17:28;31.13;;;16.27;;
56363;SDS011;42261;52.094;4.326;2023-04-09T08:20:12;32.65;;;15.48;;
56363;SDS011;42261;52.094;4.326;2023-04-09T08:22:57;33.35;;;16.02;;
56363;SDS011;42261;52.094;4.326;2023-04-09T08:25:42;33.15;;;16.20;;
56363;SDS011;42261;52.094;4.326;2023-04-09T08:28:26;35.92;;;16.40;;
56363;SDS011;42261;52.094;4.326;2023-04-09T08:31:11;32.38;;;16.58;;
56363;SDS011;42261;52.094;4.326;2023-04-09T08:33:56;39.67;;;17.17;;
56363;SDS011;42261;52.094;4.326;2023-04-09T08:36:40;39.88;;;19.05;;
56363;SDS011;42261;52.094;4.326;2023-04-09T08:39:25;40.17;;;19.77;;
56363;SDS011;42261;52.094;4.326;2023-04-09T08:42:09;46.55;;;21.67;;
56363;SDS011;42261;52.094;4.326;2023-04-09T08:44:55;47.75;;;21.00;;
56363;SDS011;42261;52.094;4.326;2023-04-09T08:47:40;44.20;;;20.58;;
56363;SDS011;42261;52.094;4.326;2023-04-09T08:50:25;48.10;;;21.15;;
56363;SDS011;42261;52.094;4.326;2023-04-09T08:53:09;51.85;;;23.38;;
56363;SDS011;42261;52.094;4.326;2023-04-09T08:55:53;52.22;;;21.88;;
56363;SDS011;42261;52.094;4.326;2023-04-09T08:58:40;52.88;;;24.65;;
56363;SDS011;42261;52.094;4.326;2023-04-09T09:01:26;49.80;;;21.60;;
56363;SDS011;42261;52.094;4.326;2023-04-09T09:04:11;55.42;;;22.10;;
56363;SDS011;42261;52.094;4.326;2023-04-09T09:06:54;55.22;;;24.50;;
56363;SDS011;42261;52.094;4.326;2023-04-09T09:09:52;51.83;;;24.27;;
56363;SDS011;42261;52.094;4.326;2023-04-09T09:12:38;48.67;;;21.48;;
56363;SDS011;42261;52.094;4.326;2023-04-09T09:15:24;50.47;;;22.33;;
56363;SDS011;42261;52.094;4.326;2023-04-09T09:18:09;46.75;;;21.13;;
56363;SDS011;42261;52.094;4.326;2023-04-09T09:20:55;47.47;;;21.42;;
56363;SDS011;42261;52.094;4.326;2023-04-09T09:23:39;48.72;;;21.95;;
56363;SDS011;42261;52.094;4.326;2023-04-09T09:26:24;47.35;;;22.52;;
56363;SDS011;42261;52.094;4.326;2023-04-09T09:29:09;48.30;;;21.02;;
56363;SDS011;42261;52.094;4.326;2023-04-09T09:31:53;44.13;;;20.45;;
56363;SDS011;42261;52.094;4.326;2023-04-09T09:34:38;44.45;;;20.75;;
56363;SDS011;42261;52.094;4.326;2023-04-09T09:37:25;47.63;;;22.00;;
56363;SDS011;42261;52.094;4.326;2023-04-09T09:40:10;43.15;;;20.67;;
56363;SDS011;42261;52.094;4.326;2023-04-09T09:43:09;50.78;;;22.42;;
56363;SDS011;42261;52.094;4.326;2023-04-09T09:45:53;50.65;;;22.75;;
56363;SDS011;42261;52.094;4.326;2023-04-09T09:48:37;44.13;;;20.33;;
56363;SDS011;42261;52.094;4.326;2023-04-09T09:51:24;50.67;;;23.40;;
56363;SDS011;42261;52.094;4.326;2023-04-09T09:54:10;51.13;;;23.20;;
56363;SDS011;42261;52.094;4.326;2023-04-09T09:56:55;47.33;;;21.77;;
56363;SDS011;42261;52.094;4.326;2023-04-09T09:59:42;54.13;;;22.60;;
56363;SDS011;42261;52.094;4.326;2023-04-09T10:02:27;46.30;;;20.77;;
56363;SDS011;42261;52.094;4.326;2023-04-09T10:05:16;45.92;;;22.02;;
56363;SDS011;42261;52.094;4.326;2023-04-09T10:08:00;48.13;;;23.38;;
56363;SDS011;42261;52.094;4.326;2023-04-09T10:10:45;49.15;;;22.63;;
56363;SDS011;42261;52.094;4.326;2023-04-09T10:16:17;45.60;;;20.88;;
56363;SDS011;42261;52.094;4.326;2023-04-09T10:19:02;42.15;;;20.52;;
56363;SDS011;42261;52.094;4.326;2023-04-09T10:21:51;43.63;;;21.45;;
56363;SDS011;42261;52.094;4.326;2023-04-09T10:24:37;47.80;;;20.23;;
56363;SDS011;42261;52.094;4.326;2023-04-09T10:27:21;44.78;;;20.80;;
56363;SDS011;42261;52.094;4.326;2023-04-09T10:30:06;46.60;;;21.45;;
56363;SDS011;42261;52.094;4.326;2023-04-09T10:32:53;48.85;;;21.52;;
56363;SDS011;42261;52.094;4.326;2023-04-09T10:35:37;46.50;;;22.08;;
56363;SDS011;42261;52.094;4.326;2023-04-09T10:41:21;49.25;;;25.13;;
56363;SDS011;42261;52.094;4.326;2023-04-09T10:44:06;46.65;;;21.83;;
56363;SDS011;42261;52.094;4.326;2023-04-09T10:47:02;43.53;;;21.23;;
56363;SDS011;42261;52.094;4.326;2023-04-09T10:49:47;49.83;;;24.10;;
56363;SDS011;42261;52.094;4.326;2023-04-09T10:52:32;47.08;;;22.25;;
56363;SDS011;42261;52.094;4.326;2023-04-09T10:55:33;47.60;;;21.88;;
56363;SDS011;42261;52.094;4.326;2023-04-09T10:58:18;42.17;;;21.33;;
56363;SDS011;42261;52.094;4.326;2023-04-09T11:01:03;45.97;;;22.00;;
56363;SDS011;42261;52.094;4.326;2023-04-09T11:03:47;49.00;;;22.58;;
56363;SDS011;42261;52.094;4.326;2023-04-09T11:06:48;47.40;;;22.38;;
56363;SDS011;42261;52.094;4.326;2023-04-09T11:09:34;43.25;;;21.17;;
56363;SDS011;42261;52.094;4.326;2023-04-09T11:12:18;50.97;;;23.95;;
56363;SDS011;42261;52.094;4.326;2023-04-09T11:15:02;45.42;;;22.65;;
56363;SDS011;42261;52.094;4.326;2023-04-09T11:17:46;43.42;;;20.40;;
56363;SDS011;42261;52.094;4.326;2023-04-09T11:20:32;44.72;;;21.55;;
56363;SDS011;42261;52.094;4.326;2023-04-09T11:23:17;44.53;;;22.17;;
56363;SDS011;42261;52.094;4.326;2023-04-09T11:26:01;48.22;;;22.15;;
56363;SDS011;42261;52.094;4.326;2023-04-09T11:28:46;45.72;;;22.42;;
56363;SDS011;42261;52.094;4.326;2023-04-09T11:31:30;44.28;;;20.40;;
56363;SDS011;42261;52.094;4.326;2023-04-09T11:34:14;41.47;;;21.42;;
56363;SDS011;42261;52.094;4.326;2023-04-09T11:36:58;41.63;;;20.60;;
56363;SDS011;42261;52.094;4.326;2023-04-09T11:39:48;47.00;;;20.77;;
56363;SDS011;42261;52.094;4.326;2023-04-09T11:42:34;45.50;;;23.15;;
56363;SDS011;42261;52.094;4.326;2023-04-09T11:45:20;46.08;;;21.88;;
56363;SDS011;42261;52.094;4.326;2023-04-09T11:48:05;45.65;;;22.40;;
56363;SDS011;42261;52.094;4.326;2023-04-09T11:50:49;42.97;;;22.60;;
56363;SDS011;42261;52.094;4.326;2023-04-09T11:53:33;45.47;;;21.63;;
56363;SDS011;42261;52.094;4.326;2023-04-09T11:56:19;44.45;;;21.90;;
56363;SDS011;42261;52.094;4.326;2023-04-09T11:59:03;48.70;;;22.48;;
56363;SDS011;42261;52.094;4.326;2023-04-09T12:01:51;38.92;;;20.55;;
56363;SDS011;42261;52.094;4.326;2023-04-09T12:04:34;41.75;;;21.48;;
56363;SDS011;42261;52.094;4.326;2023-04-09T12:07:18;42.83;;;22.85;;
56363;SDS011;42261;52.094;4.326;2023-04-09T12:10:03;40.67;;;20.85;;
56363;SDS011;42261;52.094;4.326;2023-04-09T12:12:48;41.88;;;22.30;;
56363;SDS011;42261;52.094;4.326;2023-04-09T12:15:32;40.70;;;21.45;;
56363;SDS011;42261;52.094;4.326;2023-04-09T12:18:20;38.58;;;19.30;;
56363;SDS011;42261;52.094;4.326;2023-04-09T12:21:04;37.20;;;22.25;;
56363;SDS011;42261;52.094;4.326;2023-04-09T12:23:49;43.10;;;22.38;;
56363;SDS011;42261;52.094;4.326;2023-04-09T12:26:33;39.97;;;21.30;;
56363;SDS011;42261;52.094;4.326;2023-04-09T12:29:18;36.50;;;20.58;;
56363;SDS011;42261;52.094;4.326;2023-04-09T12:32:02;37.95;;;20.35;;
56363;SDS011;42261;52.094;4.326;2023-04-09T12:34:46;41.20;;;21.48;;
56363;SDS011;42261;52.094;4.326;2023-04-09T12:37:30;38.67;;;21.38;;
56363;SDS011;42261;52.094;4.326;2023-04-09T12:40:14;37.28;;;21.25;;
56363;SDS011;42261;52.094;4.326;2023-04-09T12:42:58;40.58;;;21.20;;
56363;SDS011;42261;52.094;4.326;2023-04-09T12:45:42;35.83;;;21.55;;
56363;SDS011;42261;52.094;4.326;2023-04-09T12:48:27;37.60;;;21.38;;
56363;SDS011;42261;52.094;4.326;2023-04-09T12:51:11;38.38;;;21.25;;
56363;SDS011;42261;52.094;4.326;2023-04-09T12:53:55;33.72;;;19.17;;
56363;SDS011;42261;52.094;4.326;2023-04-09T12:56:39;36.88;;;21.00;;
56363;SDS011;42261;52.094;4.326;2023-04-09T12:59:23;35.75;;;21.40;;
56363;SDS011;42261;52.094;4.326;2023-04-09T13:02:07;34.70;;;21.13;;
56363;SDS011;42261;52.094;4.326;2023-04-09T13:04:51;34.17;;;21.67;;
56363;SDS011;42261;52.094;4.326;2023-04-09T13:07:35;35.90;;;20.88;;
56363;SDS011;42261;52.094;4.326;2023-04-09T13:10:19;35.72;;;21.40;;
56363;SDS011;42261;52.094;4.326;2023-04-09T13:13:03;34.22;;;19.75;;
56363;SDS011;42261;52.094;4.326;2023-04-09T13:15:48;34.55;;;19.83;;
56363;SDS011;42261;52.094;4.326;2023-04-09T13:18:32;37.20;;;21.05;;
56363;SDS011;42261;52.094;4.326;2023-04-09T13:21:15;32.35;;;21.30;;
56363;SDS011;42261;52.094;4.326;2023-04-09T13:24:02;33.90;;;19.58;;
56363;SDS011;42261;52.094;4.326;2023-04-09T13:26:46;35.60;;;21.17;;
56363;SDS011;42261;52.094;4.326;2023-04-09T13:29:30;33.38;;;20.25;;
56363;SDS011;42261;52.094;4.326;2023-04-09T13:32:14;33.10;;;20.15;;
56363;SDS011;42261;52.094;4.326;2023-04-09T13:35:01;30.25;;;18.55;;
56363;SDS011;42261;52.094;4.326;2023-04-09T13:37:44;33.25;;;20.58;;
56363;SDS011;42261;52.094;4.326;2023-04-09T13:40:28;33.55;;;20.52;;
56363;SDS011;42261;52.094;4.326;2023-04-09T13:43:13;34.47;;;20.38;;
56363;SDS011;42261;52.094;4.326;2023-04-09T13:45:57;36.28;;;19.83;;
56363;SDS011;42261;52.094;4.326;2023-04-09T13:48:41;32.78;;;20.58;;
56363;SDS011;42261;52.094;4.326;2023-04-09T13:51:26;31.60;;;19.38;;
56363;SDS011;42261;52.094;4.326;2023-04-09T13:54:10;31.58;;;18.55;;
56363;SDS011;42261;52.094;4.326;2023-04-09T13:56:54;29.58;;;19.30;;
56363;SDS011;42261;52.094;4.326;2023-04-09T13:59:38;27.98;;;18.45;;
56363;SDS011;42261;52.094;4.326;2023-04-09T14:02:24;39.33;;;22.27;;
56363;SDS011;42261;52.094;4.326;2023-04-09T14:05:08;29.17;;;18.40;;
56363;SDS011;42261;52.094;4.326;2023-04-09T14:07:53;35.15;;;20.75;;
56363;SDS011;42261;52.094;4.326;2023-04-09T14:10:37;38.40;;;23.23;;
56363;SDS011;42261;52.094;4.326;2023-04-09T14:13:21;36.88;;;21.80;;
56363;SDS011;42261;52.094;4.326;2023-04-09T14:16:06;28.00;;;18.63;;
56363;SDS011;42261;52.094;4.326;2023-04-09T14:18:50;37.22;;;22.02;;
56363;SDS011;42261;52.094;4.326;2023-04-09T14:21:35;38.83;;;22.98;;
56363;SDS011;42261;52.094;4.326;2023-04-09T14:24:19;26.45;;;16.27;;
56363;SDS011;42261;52.094;4.326;2023-04-09T14:27:05;29.02;;;18.23;;
56363;SDS011;42261;52.094;4.326;2023-04-09T14:29:50;29.05;;;18.05;;
56363;SDS011;42261;52.094;4.326;2023-04-09T14:32:35;28.33;;;17.70;;
56363;SDS011;42261;52.094;4.326;2023-04-09T14:35:19;29.42;;;17.10;;
56363;SDS011;42261;52.094;4.326;2023-04-09T14:38:03;29.15;;;17.17;;
56363;SDS011;42261;52.094;4.326;2023-04-09T14:40:47;28.42;;;16.90;;
56363;SDS011;42261;52.094;4.326;2023-04-09T14:43:31;33.30;;;19.60;;
56363;SDS011;42261;52.094;4.326;2023-04-09T14:46:15;32.05;;;19.00;;
56363;SDS011;42261;52.094;4.326;2023-04-09T14:49:00;26.58;;;17.58;;
56363;SDS011;42261;52.094;4.326;2023-04-09T14:51:44;27.52;;;16.33;;
56363;SDS011;42261;52.094;4.326;2023-04-09T14:54:28;22.95;;;14.75;;
56363;SDS011;42261;52.094;4.326;2023-04-09T14:57:13;24.52;;;15.05;;
56363;SDS011;42261;52.094;4.326;2023-04-09T14:59:58;18.33;;;12.90;;
56363;SDS011;42261;52.094;4.326;2023-04-09T15:02:42;18.80;;;12.27;;
56363;SDS011;42261;52.094;4.326;2023-04-09T15:05:26;20.40;;;13.18;;
56363;SDS011;42261;52.094;4.326;2023-04-09T15:08:11;18.48;;;12.23;;
56363;SDS011;42261;52.094;4.326;2023-04-09T15:10:55;20.80;;;12.88;;
56363;SDS011;42261;52.094;4.326;2023-04-09T15:13:39;17.45;;;11.70;;
56363;SDS011;42261;52.094;4.326;2023-04-09T15:16:25;17.15;;;11.98;;
56363;SDS011;42261;52.094;4.326;2023-04-09T15:19:09;22.33;;;12.52;;
56363;SDS011;42261;52.094;4.326;2023-04-09T15:21:53;15.73;;;10.43;;
56363;SDS011;42261;52.094;4.326;2023-04-09T15:24:37;17.58;;;12.15;;
56363;SDS011;42261;52.094;4.326;2023-04-09T15:27:21;17.45;;;11.70;;
56363;SDS011;42261;52.094;4.326;2023-04-09T15:30:06;14.68;;;10.65;;
56363;SDS011;42261;52.094;4.326;2023-04-09T15:32:50;20.77;;;12.90;;
56363;SDS011;42261;52.094;4.326;2023-04-09T15:35:34;20.95;;;13.65;;
56363;SDS011;42261;52.094;4.326;2023-04-09T15:38:18;14.80;;;10.50;;
56363;SDS011;42261;52.094;4.326;2023-04-09T15:41:08;16.80;;;10.60;;
56363;SDS011;42261;52.094;4.326;2023-04-09T15:43:53;21.35;;;12.52;;
56363;SDS011;42261;52.094;4.326;2023-04-09T15:46:37;19.13;;;12.38;;
56363;SDS011;42261;52.094;4.326;2023-04-09T15:49:21;17.20;;;11.82;;
56363;SDS011;42261;52.094;4.326;2023-04-09T15:52:05;15.20;;;10.02;;
56363;SDS011;42261;52.094;4.326;2023-04-09T15:54:50;18.15;;;11.18;;
56363;SDS011;42261;52.094;4.326;2023-04-09T15:57:33;14.68;;;9.88;;
56363;SDS011;42261;52.094;4.326;2023-04-09T16:00:18;17.42;;;11.55;;
56363;SDS011;42261;52.094;4.326;2023-04-09T16:03:01;73.15;;;35.00;;
56363;SDS011;42261;52.094;4.326;2023-04-09T16:05:46;22.25;;;12.98;;
56363;SDS011;42261;52.094;4.326;2023-04-09T16:08:30;18.98;;;11.38;;
56363;SDS011;42261;52.094;4.326;2023-04-09T16:11:14;16.25;;;10.20;;
56363;SDS011;42261;52.094;4.326;2023-04-09T16:13:58;19.90;;;12.40;;
56363;SDS011;42261;52.094;4.326;2023-04-09T16:16:43;25.75;;;14.90;;
56363;SDS011;42261;52.094;4.326;2023-04-09T16:19:32;16.13;;;10.13;;